Saturday, January 20, 2018, 10:12 AM EST
Back to Local

KBAF, Westfield Barnes Municipal

Location: Westfield, MA, United States Lat: 42.167
Local Time: 10:12 AM EST (15:12 GMT) Lon: -72.717
Time Zone: US/Eastern Elev: 272 ft

Show me the last for .
Show Coded

Time T Td Feel RH Dir Speed Gust Alt SLP Vis Weather Sky Remarks
2018-01-20 09:53 33 24 30 69 180° 3 - 29.76 29.78 10 CLR None
2018-01-20 08:53 27 22 22 80 300° 5 - 29.75 29.77 10 CLR None
2018-01-20 07:53 23 19 17 84 320° 5 - 29.74 29.76 10 CLR None
2018-01-20 06:53 24 20 - 83 - Calm - 29.73 29.75 10 CLR 6-hr Min Temp (7am): 19.9°F
6-hr Max Temp (7am): 30.0°F
2018-01-20 05:53 26 20 - 77 - Calm - 29.72 29.74 10 CLR None
2018-01-20 04:53 29 20 24 68 180° 5 - 29.74 29.76 10 CLR None
2018-01-20 03:53 30 21 25 68 140° 5 - 29.78 29.80 10 CLR None
2018-01-20 01:53 29 20 20 68 160° 10 - 29.80 29.82 10 CLR None
2018-01-20 00:53 26 19 18 74 190° 7 - 29.84 29.86 10 CLR 6-hr Min Temp (1am): 23.0°F
6-hr Max Temp (1am): 30.0°F
2018-01-19 23:53 25 17 19 71 200° 5 - 29.87 29.89 10 CLR 24-hr Min Temp (12am): 10.9°F
24-hr Max Temp (12am): 36.0°F
2018-01-19 22:53 24 17 20 74 150° 3 - 29.90 29.92 10 CLR None
2018-01-19 21:53 25 17 16 71 190° 8 - 29.91 29.93 10 CLR None
2018-01-19 20:53 26 19 19 74 180° 6 - 29.93 29.96 10 CLR None
2018-01-19 19:53 25 18 18 74 200° 6 - 29.94 29.96 10 CLR None
2018-01-19 18:53 30 21 24 68 250° 6 - 29.94 29.96 10 CLR 6-hr Min Temp (7pm): 28.9°F
6-hr Max Temp (7pm): 36.0°F
2018-01-19 17:53 31 21 27 66 230° 3 - 29.93 29.95 10 FEW035 None
2018-01-19 16:53 33 21 28 60 280° 6 - 29.93 29.96 10 BKN035 None
2018-01-19 15:53 34 21 25 58 300° 13 - 29.93 29.96 10 BKN038 None
2018-01-19 14:53 36 19 - 49 - Calm - 29.92 29.94 10 BKN039 None
2018-01-19 13:53 33 19 27 55 360° 7 - 29.92 29.95 10 CLR None
2018-01-19 12:53 33 17 23 51 350° 15 - 29.93 29.96 10 CLR 6-hr Min Temp (1pm): 10.9°F
6-hr Max Temp (1pm): 33.1°F
2018-01-19 11:53 30 17 26 58 Variable 3 - 29.95 29.97 10 CLR None
2018-01-19 10:53 26 16 19 65 190° 6 - 29.99 30.01 10 CLR None

Support USWX by starting your Amazon purchase here.